sensor_id;sensor_type;location;lat;lon;timestamp;P1;durP1;ratioP1;P2;durP2;ratioP2
64500;SDS011;50874;24.150;-110.320;2023-11-22T00:02:01;11.13;;;2.85;;
64500;SDS011;50874;24.150;-110.320;2023-11-22T00:04:28;31.23;;;3.60;;
64500;SDS011;50874;24.150;-110.320;2023-11-22T00:06:55;15.45;;;2.65;;
64500;SDS011;50874;24.150;-110.320;2023-11-22T00:09:21;15.90;;;3.00;;
64500;SDS011;50874;24.150;-110.320;2023-11-22T00:11:48;20.35;;;2.72;;
64500;SDS011;50874;24.150;-110.320;2023-11-22T00:14:15;19.30;;;3.10;;
64500;SDS011;50874;24.150;-110.320;2023-11-22T00:16:42;136.05;;;13.13;;
64500;SDS011;50874;24.150;-110.320;2023-11-22T00:19:08;9.43;;;2.78;;
64500;SDS011;50874;24.150;-110.320;2023-11-22T00:21:35;30.85;;;3.63;;
64500;SDS011;50874;24.150;-110.320;2023-11-22T00:24:06;17.63;;;2.45;;
64500;SDS011;50874;24.150;-110.320;2023-11-22T00:26:34;14.27;;;2.22;;
64500;SDS011;50874;24.150;-110.320;2023-11-22T00:29:00;20.05;;;2.97;;
64500;SDS011;50874;24.150;-110.320;2023-11-22T00:31:27;15.50;;;2.92;;
64500;SDS011;50874;24.150;-110.320;2023-11-22T00:33:53;44.33;;;6.57;;
64500;SDS011;50874;24.150;-110.320;2023-11-22T00:36:19;24.40;;;5.18;;
64500;SDS011;50874;24.150;-110.320;2023-11-22T00:38:46;27.10;;;3.42;;
64500;SDS011;50874;24.150;-110.320;2023-11-22T00:41:13;23.42;;;4.65;;
64500;SDS011;50874;24.150;-110.320;2023-11-22T00:43:42;24.15;;;4.28;;
64500;SDS011;50874;24.150;-110.320;2023-11-22T00:46:08;20.40;;;4.10;;
64500;SDS011;50874;24.150;-110.320;2023-11-22T00:48:35;25.23;;;4.53;;
64500;SDS011;50874;24.150;-110.320;2023-11-22T00:51:01;34.10;;;4.45;;
64500;SDS011;50874;24.150;-110.320;2023-11-22T00:53:34;29.02;;;3.20;;
64500;SDS011;50874;24.150;-110.320;2023-11-22T00:56:04;137.88;;;12.32;;
64500;SDS011;50874;24.150;-110.320;2023-11-22T00:58:31;29.90;;;4.22;;
64500;SDS011;50874;24.150;-110.320;2023-11-22T01:00:58;19.33;;;3.63;;
64500;SDS011;50874;24.150;-110.320;2023-11-22T01:03:24;30.17;;;4.75;;
64500;SDS011;50874;24.150;-110.320;2023-11-22T01:05:51;53.83;;;5.82;;
64500;SDS011;50874;24.150;-110.320;2023-11-22T01:08:18;52.92;;;6.65;;
64500;SDS011;50874;24.150;-110.320;2023-11-22T01:10:44;37.25;;;4.20;;
64500;SDS011;50874;24.150;-110.320;2023-11-22T01:13:11;44.00;;;5.70;;
64500;SDS011;50874;24.150;-110.320;2023-11-22T01:15:40;22.67;;;3.28;;
64500;SDS011;50874;24.150;-110.320;2023-11-22T01:18:07;20.02;;;3.05;;
64500;SDS011;50874;24.150;-110.320;2023-11-22T01:20:33;25.30;;;3.75;;
64500;SDS011;50874;24.150;-110.320;2023-11-22T01:23:00;25.20;;;4.07;;
64500;SDS011;50874;24.150;-110.320;2023-11-22T01:25:26;29.85;;;4.60;;
64500;SDS011;50874;24.150;-110.320;2023-11-22T01:27:53;27.17;;;4.07;;
64500;SDS011;50874;24.150;-110.320;2023-11-22T01:30:20;21.42;;;3.58;;
64500;SDS011;50874;24.150;-110.320;2023-11-22T01:32:47;17.67;;;2.67;;
64500;SDS011;50874;24.150;-110.320;2023-11-22T01:35:14;38.20;;;5.22;;
64500;SDS011;50874;24.150;-110.320;2023-11-22T01:37:41;20.55;;;3.75;;
64500;SDS011;50874;24.150;-110.320;2023-11-22T01:40:07;19.23;;;2.90;;
64500;SDS011;50874;24.150;-110.320;2023-11-22T01:42:34;28.05;;;3.42;;
64500;SDS011;50874;24.150;-110.320;2023-11-22T01:45:02;43.25;;;5.55;;
64500;SDS011;50874;24.150;-110.320;2023-11-22T01:47:30;14.07;;;2.85;;
64500;SDS011;50874;24.150;-110.320;2023-11-22T01:49:56;45.08;;;5.53;;
64500;SDS011;50874;24.150;-110.320;2023-11-22T01:52:23;17.73;;;2.78;;
64500;SDS011;50874;24.150;-110.320;2023-11-22T01:54:50;38.40;;;3.55;;
64500;SDS011;50874;24.150;-110.320;2023-11-22T01:57:16;16.40;;;2.97;;
64500;SDS011;50874;24.150;-110.320;2023-11-22T01:59:44;18.70;;;5.03;;
64500;SDS011;50874;24.150;-110.320;2023-11-22T02:02:12;21.17;;;3.78;;
64500;SDS011;50874;24.150;-110.320;2023-11-22T02:04:39;22.42;;;3.70;;
64500;SDS011;50874;24.150;-110.320;2023-11-22T02:07:06;29.98;;;4.18;;
64500;SDS011;50874;24.150;-110.320;2023-11-22T02:09:32;36.05;;;4.45;;
64500;SDS011;50874;24.150;-110.320;2023-11-22T02:11:59;27.10;;;3.28;;
64500;SDS011;50874;24.150;-110.320;2023-11-22T02:14:25;23.67;;;3.45;;
64500;SDS011;50874;24.150;-110.320;2023-11-22T02:16:52;22.92;;;3.45;;
64500;SDS011;50874;24.150;-110.320;2023-11-22T02:19:18;36.08;;;4.20;;
64500;SDS011;50874;24.150;-110.320;2023-11-22T02:21:45;14.15;;;2.90;;
64500;SDS011;50874;24.150;-110.320;2023-11-22T02:24:12;13.98;;;2.65;;
64500;SDS011;50874;24.150;-110.320;2023-11-22T02:26:43;29.70;;;3.60;;
64500;SDS011;50874;24.150;-110.320;2023-11-22T02:29:11;18.85;;;2.97;;
64500;SDS011;50874;24.150;-110.320;2023-11-22T02:31:39;15.52;;;2.88;;
64500;SDS011;50874;24.150;-110.320;2023-11-22T02:34:08;15.32;;;2.45;;
64500;SDS011;50874;24.150;-110.320;2023-11-22T02:36:35;43.25;;;5.28;;
64500;SDS011;50874;24.150;-110.320;2023-11-22T02:39:01;22.42;;;3.50;;
64500;SDS011;50874;24.150;-110.320;2023-11-22T02:41:28;24.75;;;3.38;;
64500;SDS011;50874;24.150;-110.320;2023-11-22T02:43:55;18.17;;;3.78;;
64500;SDS011;50874;24.150;-110.320;2023-11-22T02:46:22;24.92;;;3.05;;
64500;SDS011;50874;24.150;-110.320;2023-11-22T02:48:49;18.58;;;2.90;;
64500;SDS011;50874;24.150;-110.320;2023-11-22T02:51:15;34.97;;;4.10;;
64500;SDS011;50874;24.150;-110.320;2023-11-22T02:53:42;22.90;;;3.75;;
64500;SDS011;50874;24.150;-110.320;2023-11-22T02:56:11;21.50;;;3.30;;
64500;SDS011;50874;24.150;-110.320;2023-11-22T02:58:37;24.42;;;3.08;;
64500;SDS011;50874;24.150;-110.320;2023-11-22T03:01:04;23.90;;;3.58;;
64500;SDS011;50874;24.150;-110.320;2023-11-22T03:03:30;19.02;;;2.42;;
64500;SDS011;50874;24.150;-110.320;2023-11-22T03:05:57;28.70;;;3.95;;
64500;SDS011;50874;24.150;-110.320;2023-11-22T03:08:23;26.58;;;3.97;;
64500;SDS011;50874;24.150;-110.320;2023-11-22T03:10:50;23.23;;;3.78;;
64500;SDS011;50874;24.150;-110.320;2023-11-22T03:13:19;35.42;;;3.40;;
64500;SDS011;50874;24.150;-110.320;2023-11-22T03:15:45;20.40;;;3.30;;
64500;SDS011;50874;24.150;-110.320;2023-11-22T03:18:12;36.28;;;4.05;;
64500;SDS011;50874;24.150;-110.320;2023-11-22T03:20:41;25.95;;;4.03;;
64500;SDS011;50874;24.150;-110.320;2023-11-22T03:23:08;25.27;;;2.75;;
64500;SDS011;50874;24.150;-110.320;2023-11-22T03:25:36;25.95;;;3.75;;
64500;SDS011;50874;24.150;-110.320;2023-11-22T03:28:02;22.75;;;3.78;;
64500;SDS011;50874;24.150;-110.320;2023-11-22T03:30:29;30.80;;;3.78;;
64500;SDS011;50874;24.150;-110.320;2023-11-22T03:32:55;27.42;;;4.40;;
64500;SDS011;50874;24.150;-110.320;2023-11-22T03:35:22;28.58;;;3.95;;
64500;SDS011;50874;24.150;-110.320;2023-11-22T03:37:48;24.75;;;3.63;;
64500;SDS011;50874;24.150;-110.320;2023-11-22T03:40:15;27.08;;;3.30;;
64500;SDS011;50874;24.150;-110.320;2023-11-22T03:42:41;18.88;;;3.40;;
64500;SDS011;50874;24.150;-110.320;2023-11-22T03:45:08;32.88;;;4.43;;
64500;SDS011;50874;24.150;-110.320;2023-11-22T03:47:34;26.55;;;2.78;;
64500;SDS011;50874;24.150;-110.320;2023-11-22T03:50:04;19.77;;;3.20;;
64500;SDS011;50874;24.150;-110.320;2023-11-22T03:52:31;26.92;;;3.20;;
64500;SDS011;50874;24.150;-110.320;2023-11-22T03:54:57;26.00;;;3.22;;
64500;SDS011;50874;24.150;-110.320;2023-11-22T03:57:24;23.48;;;2.90;;
64500;SDS011;50874;24.150;-110.320;2023-11-22T03:59:50;18.08;;;3.55;;
64500;SDS011;50874;24.150;-110.320;2023-11-22T04:02:17;26.30;;;3.72;;
64500;SDS011;50874;24.150;-110.320;2023-11-22T04:04:43;29.65;;;3.55;;
64500;SDS011;50874;24.150;-110.320;2023-11-22T04:07:10;25.80;;;3.00;;
64500;SDS011;50874;24.150;-110.320;2023-11-22T04:09:37;33.05;;;4.90;;
64500;SDS011;50874;24.150;-110.320;2023-11-22T04:12:03;23.42;;;3.55;;
64500;SDS011;50874;24.150;-110.320;2023-11-22T04:14:30;24.13;;;3.33;;
64500;SDS011;50874;24.150;-110.320;2023-11-22T04:16:56;22.60;;;3.42;;
64500;SDS011;50874;24.150;-110.320;2023-11-22T04:19:23;13.98;;;3.20;;
64500;SDS011;50874;24.150;-110.320;2023-11-22T04:21:49;12.05;;;2.78;;
64500;SDS011;50874;24.150;-110.320;2023-11-22T04:24:16;21.65;;;3.00;;
64500;SDS011;50874;24.150;-110.320;2023-11-22T04:26:43;13.40;;;2.53;;
64500;SDS011;50874;24.150;-110.320;2023-11-22T04:29:09;20.25;;;2.75;;
64500;SDS011;50874;24.150;-110.320;2023-11-22T04:31:35;12.02;;;2.05;;
64500;SDS011;50874;24.150;-110.320;2023-11-22T04:34:02;18.13;;;3.25;;
64500;SDS011;50874;24.150;-110.320;2023-11-22T04:36:29;23.75;;;3.65;;
64500;SDS011;50874;24.150;-110.320;2023-11-22T04:38:56;25.40;;;3.47;;
64500;SDS011;50874;24.150;-110.320;2023-11-22T04:41:22;31.30;;;3.90;;
64500;SDS011;50874;24.150;-110.320;2023-11-22T04:43:50;22.88;;;2.97;;
64500;SDS011;50874;24.150;-110.320;2023-11-22T04:46:16;23.80;;;2.70;;
64500;SDS011;50874;24.150;-110.320;2023-11-22T04:48:43;19.33;;;4.43;;
64500;SDS011;50874;24.150;-110.320;2023-11-22T04:51:10;22.55;;;2.63;;
64500;SDS011;50874;24.150;-110.320;2023-11-22T04:53:37;19.10;;;2.97;;
64500;SDS011;50874;24.150;-110.320;2023-11-22T04:56:03;17.23;;;3.45;;
64500;SDS011;50874;24.150;-110.320;2023-11-22T04:58:32;25.35;;;3.75;;
64500;SDS011;50874;24.150;-110.320;2023-11-22T05:00:59;11.85;;;3.50;;
64500;SDS011;50874;24.150;-110.320;2023-11-22T05:03:27;17.65;;;2.97;;
64500;SDS011;50874;24.150;-110.320;2023-11-22T05:05:53;24.00;;;3.83;;
64500;SDS011;50874;24.150;-110.320;2023-11-22T05:08:20;11.98;;;2.83;;
64500;SDS011;50874;24.150;-110.320;2023-11-22T05:10:46;19.35;;;2.92;;
64500;SDS011;50874;24.150;-110.320;2023-11-22T05:13:12;16.17;;;2.80;;
64500;SDS011;50874;24.150;-110.320;2023-11-22T05:15:39;20.05;;;2.60;;
64500;SDS011;50874;24.150;-110.320;2023-11-22T05:18:05;26.70;;;3.63;;
64500;SDS011;50874;24.150;-110.320;2023-11-22T05:20:32;19.45;;;2.85;;
64500;SDS011;50874;24.150;-110.320;2023-11-22T05:22:58;27.15;;;3.60;;
64500;SDS011;50874;24.150;-110.320;2023-11-22T05:25:26;22.75;;;3.15;;
64500;SDS011;50874;24.150;-110.320;2023-11-22T05:27:52;17.88;;;3.40;;
64500;SDS011;50874;24.150;-110.320;2023-11-22T05:30:19;23.38;;;3.35;;
64500;SDS011;50874;24.150;-110.320;2023-11-22T05:32:48;20.15;;;2.97;;
64500;SDS011;50874;24.150;-110.320;2023-11-22T05:35:15;21.48;;;3.13;;
64500;SDS011;50874;24.150;-110.320;2023-11-22T05:37:41;21.83;;;2.97;;
64500;SDS011;50874;24.150;-110.320;2023-11-22T05:40:08;23.77;;;2.80;;
64500;SDS011;50874;24.150;-110.320;2023-11-22T05:42:35;20.60;;;3.40;;
64500;SDS011;50874;24.150;-110.320;2023-11-22T05:45:02;19.88;;;3.55;;
64500;SDS011;50874;24.150;-110.320;2023-11-22T05:47:30;15.80;;;2.67;;
64500;SDS011;50874;24.150;-110.320;2023-11-22T05:49:57;18.13;;;3.38;;
64500;SDS011;50874;24.150;-110.320;2023-11-22T05:52:23;16.35;;;3.28;;
64500;SDS011;50874;24.150;-110.320;2023-11-22T05:54:50;21.58;;;4.00;;
64500;SDS011;50874;24.150;-110.320;2023-11-22T05:57:16;21.02;;;4.20;;
64500;SDS011;50874;24.150;-110.320;2023-11-22T05:59:45;12.65;;;2.88;;
64500;SDS011;50874;24.150;-110.320;2023-11-22T06:02:11;14.30;;;2.88;;
64500;SDS011;50874;24.150;-110.320;2023-11-22T06:04:38;14.68;;;3.25;;
64500;SDS011;50874;24.150;-110.320;2023-11-22T06:07:04;27.10;;;3.38;;
64500;SDS011;50874;24.150;-110.320;2023-11-22T06:09:32;15.52;;;3.22;;
64500;SDS011;50874;24.150;-110.320;2023-11-22T06:11:59;11.02;;;2.55;;
64500;SDS011;50874;24.150;-110.320;2023-11-22T06:14:25;21.95;;;3.80;;
64500;SDS011;50874;24.150;-110.320;2023-11-22T06:16:52;30.30;;;3.50;;
64500;SDS011;50874;24.150;-110.320;2023-11-22T06:19:18;26.17;;;3.72;;
64500;SDS011;50874;24.150;-110.320;2023-11-22T06:21:45;20.42;;;3.53;;
64500;SDS011;50874;24.150;-110.320;2023-11-22T06:24:11;16.75;;;3.10;;
64500;SDS011;50874;24.150;-110.320;2023-11-22T06:26:42;23.13;;;3.08;;
64500;SDS011;50874;24.150;-110.320;2023-11-22T06:29:11;18.55;;;3.45;;
64500;SDS011;50874;24.150;-110.320;2023-11-22T06:31:38;23.48;;;3.40;;
64500;SDS011;50874;24.150;-110.320;2023-11-22T06:34:05;18.70;;;3.70;;
64500;SDS011;50874;24.150;-110.320;2023-11-22T06:36:32;12.05;;;3.05;;
64500;SDS011;50874;24.150;-110.320;2023-11-22T06:38:58;17.90;;;3.10;;
64500;SDS011;50874;24.150;-110.320;2023-11-22T06:41:25;15.68;;;2.50;;
64500;SDS011;50874;24.150;-110.320;2023-11-22T06:43:51;17.67;;;2.90;;
64500;SDS011;50874;24.150;-110.320;2023-11-22T06:46:18;23.45;;;3.38;;
64500;SDS011;50874;24.150;-110.320;2023-11-22T06:48:44;17.73;;;3.28;;
64500;SDS011;50874;24.150;-110.320;2023-11-22T06:51:14;12.80;;;2.38;;
64500;SDS011;50874;24.150;-110.320;2023-11-22T06:53:40;11.55;;;2.40;;
64500;SDS011;50874;24.150;-110.320;2023-11-22T06:56:06;13.70;;;2.70;;
64500;SDS011;50874;24.150;-110.320;2023-11-22T06:58:33;27.65;;;3.47;;
64500;SDS011;50874;24.150;-110.320;2023-11-22T07:01:00;12.23;;;3.30;;
64500;SDS011;50874;24.150;-110.320;2023-11-22T07:03:26;15.88;;;3.00;;
64500;SDS011;50874;24.150;-110.320;2023-11-22T07:05:52;14.88;;;3.70;;
64500;SDS011;50874;24.150;-110.320;2023-11-22T07:08:19;19.75;;;3.65;;
64500;SDS011;50874;24.150;-110.320;2023-11-22T07:10:47;26.25;;;3.42;;
64500;SDS011;50874;24.150;-110.320;2023-11-22T07:13:13;16.48;;;3.25;;
64500;SDS011;50874;24.150;-110.320;2023-11-22T07:15:40;17.13;;;3.08;;
64500;SDS011;50874;24.150;-110.320;2023-11-22T07:18:06;18.45;;;3.08;;
64500;SDS011;50874;24.150;-110.320;2023-11-22T07:20:35;18.48;;;2.45;;
64500;SDS011;50874;24.150;-110.320;2023-11-22T07:23:02;30.98;;;4.85;;
64500;SDS011;50874;24.150;-110.320;2023-11-22T07:25:29;14.32;;;3.03;;
64500;SDS011;50874;24.150;-110.320;2023-11-22T07:27:56;12.85;;;3.08;;
64500;SDS011;50874;24.150;-110.320;2023-11-22T07:30:24;20.80;;;3.08;;
64500;SDS011;50874;24.150;-110.320;2023-11-22T07:32:55;16.13;;;2.70;;
64500;SDS011;50874;24.150;-110.320;2023-11-22T07:35:21;13.93;;;3.95;;
64500;SDS011;50874;24.150;-110.320;2023-11-22T07:37:48;11.27;;;2.47;;
64500;SDS011;50874;24.150;-110.320;2023-11-22T07:40:17;14.48;;;3.03;;
64500;SDS011;50874;24.150;-110.320;2023-11-22T07:42:44;23.23;;;3.85;;
64500;SDS011;50874;24.150;-110.320;2023-11-22T07:45:11;28.05;;;3.30;;
64500;SDS011;50874;24.150;-110.320;2023-11-22T07:47:38;12.73;;;2.60;;
64500;SDS011;50874;24.150;-110.320;2023-11-22T07:50:09;19.73;;;3.28;;
64500;SDS011;50874;24.150;-110.320;2023-11-22T07:52:36;12.23;;;2.60;;
64500;SDS011;50874;24.150;-110.320;2023-11-22T07:55:05;13.38;;;2.70;;
64500;SDS011;50874;24.150;-110.320;2023-11-22T07:57:38;19.60;;;3.03;;
64500;SDS011;50874;24.150;-110.320;2023-11-22T08:00:04;23.52;;;2.22;;
64500;SDS011;50874;24.150;-110.320;2023-11-22T08:02:33;20.92;;;2.75;;
64500;SDS011;50874;24.150;-110.320;2023-11-22T08:05:00;10.23;;;2.60;;
64500;SDS011;50874;24.150;-110.320;2023-11-22T08:07:28;19.10;;;3.33;;
64500;SDS011;50874;24.150;-110.320;2023-11-22T08:09:55;10.98;;;2.42;;
64500;SDS011;50874;24.150;-110.320;2023-11-22T08:12:21;12.88;;;2.47;;
64500;SDS011;50874;24.150;-110.320;2023-11-22T08:14:48;9.45;;;2.17;;
64500;SDS011;50874;24.150;-110.320;2023-11-22T08:17:15;15.35;;;2.40;;
64500;SDS011;50874;24.150;-110.320;2023-11-22T08:19:41;9.23;;;2.25;;
64500;SDS011;50874;24.150;-110.320;2023-11-22T08:22:07;10.60;;;2.30;;
64500;SDS011;50874;24.150;-110.320;2023-11-22T08:24:34;12.95;;;2.60;;
64500;SDS011;50874;24.150;-110.320;2023-11-22T08:27:00;9.77;;;2.15;;
64500;SDS011;50874;24.150;-110.320;2023-11-22T08:29:28;10.55;;;2.47;;
64500;SDS011;50874;24.150;-110.320;2023-11-22T08:31:55;7.95;;;1.90;;
64500;SDS011;50874;24.150;-110.320;2023-11-22T08:34:22;8.40;;;1.70;;
64500;SDS011;50874;24.150;-110.320;2023-11-22T08:36:48;18.33;;;2.83;;
64500;SDS011;50874;24.150;-110.320;2023-11-22T08:39:15;6.47;;;2.63;;
64500;SDS011;50874;24.150;-110.320;2023-11-22T08:41:41;10.43;;;2.28;;
64500;SDS011;50874;24.150;-110.320;2023-11-22T08:44:08;12.82;;;2.47;;
64500;SDS011;50874;24.150;-110.320;2023-11-22T08:46:34;8.68;;;2.33;;
64500;SDS011;50874;24.150;-110.320;2023-11-22T08:49:01;5.50;;;1.80;;
64500;SDS011;50874;24.150;-110.320;2023-11-22T08:51:27;10.32;;;2.35;;
64500;SDS011;50874;24.150;-110.320;2023-11-22T08:53:54;9.68;;;2.15;;
64500;SDS011;50874;24.150;-110.320;2023-11-22T08:56:20;16.40;;;2.63;;
64500;SDS011;50874;24.150;-110.320;2023-11-22T08:58:47;8.35;;;1.80;;
64500;SDS011;50874;24.150;-110.320;2023-11-22T09:01:13;14.45;;;2.88;;
64500;SDS011;50874;24.150;-110.320;2023-11-22T09:03:40;15.13;;;2.25;;
64500;SDS011;50874;24.150;-110.320;2023-11-22T09:06:07;8.98;;;2.20;;
64500;SDS011;50874;24.150;-110.320;2023-11-22T09:08:34;8.95;;;1.90;;
64500;SDS011;50874;24.150;-110.320;2023-11-22T09:11:01;11.88;;;2.13;;
64500;SDS011;50874;24.150;-110.320;2023-11-22T09:13:31;16.48;;;2.25;;
64500;SDS011;50874;24.150;-110.320;2023-11-22T09:15:58;6.90;;;1.85;;
64500;SDS011;50874;24.150;-110.320;2023-11-22T09:18:24;15.75;;;1.92;;
64500;SDS011;50874;24.150;-110.320;2023-11-22T09:20:52;8.85;;;1.75;;
64500;SDS011;50874;24.150;-110.320;2023-11-22T09:23:19;21.48;;;2.50;;
64500;SDS011;50874;24.150;-110.320;2023-11-22T09:25:45;15.75;;;2.47;;
64500;SDS011;50874;24.150;-110.320;2023-11-22T09:28:12;13.25;;;2.25;;
64500;SDS011;50874;24.150;-110.320;2023-11-22T09:30:41;5.57;;;1.80;;
64500;SDS011;50874;24.150;-110.320;2023-11-22T09:35:36;10.10;;;1.63;;
64500;SDS011;50874;24.150;-110.320;2023-11-22T09:38:04;7.20;;;1.60;;
64500;SDS011;50874;24.150;-110.320;2023-11-22T09:43:11;8.32;;;1.75;;
64500;SDS011;50874;24.150;-110.320;2023-11-22T09:45:48;8.38;;;1.88;;
64500;SDS011;50874;24.150;-110.320;2023-11-22T09:48:17;10.07;;;1.92;;
64500;SDS011;50874;24.150;-110.320;2023-11-22T09:53:25;6.70;;;1.52;;
64500;SDS011;50874;24.150;-110.320;2023-11-22T09:55:58;10.20;;;1.98;;
64500;SDS011;50874;24.150;-110.320;2023-11-22T09:58:25;11.98;;;1.77;;
64500;SDS011;50874;24.150;-110.320;2023-11-22T10:01:02;8.43;;;1.65;;
64500;SDS011;50874;24.150;-110.320;2023-11-22T10:03:33;8.02;;;1.92;;
64500;SDS011;50874;24.150;-110.320;2023-11-22T10:05:59;11.60;;;1.98;;
64500;SDS011;50874;24.150;-110.320;2023-11-22T10:08:26;5.63;;;1.80;;
64500;SDS011;50874;24.150;-110.320;2023-11-22T10:10:55;8.77;;;1.55;;
64500;SDS011;50874;24.150;-110.320;2023-11-22T10:13:23;10.65;;;1.90;;
64500;SDS011;50874;24.150;-110.320;2023-11-22T10:15:50;7.88;;;1.80;;
64500;SDS011;50874;24.150;-110.320;2023-11-22T10:18:18;9.68;;;1.67;;
64500;SDS011;50874;24.150;-110.320;2023-11-22T10:20:45;9.98;;;1.75;;
64500;SDS011;50874;24.150;-110.320;2023-11-22T10:23:17;4.70;;;1.55;;
64500;SDS011;50874;24.150;-110.320;2023-11-22T10:25:54;4.82;;;1.48;;
64500;SDS011;50874;24.150;-110.320;2023-11-22T10:28:21;5.38;;;1.67;;
64500;SDS011;50874;24.150;-110.320;2023-11-22T10:30:51;12.32;;;1.70;;
64500;SDS011;50874;24.150;-110.320;2023-11-22T10:33:18;11.35;;;1.77;;
64500;SDS011;50874;24.150;-110.320;2023-11-22T10:35:49;14.70;;;1.90;;
64500;SDS011;50874;24.150;-110.320;2023-11-22T10:38:20;9.85;;;1.73;;
64500;SDS011;50874;24.150;-110.320;2023-11-22T10:40:47;10.55;;;1.45;;
64500;SDS011;50874;24.150;-110.320;2023-11-22T10:43:16;21.38;;;2.15;;
64500;SDS011;50874;24.150;-110.320;2023-11-22T10:45:44;11.10;;;1.95;;
64500;SDS011;50874;24.150;-110.320;2023-11-22T10:48:17;19.40;;;1.92;;
64500;SDS011;50874;24.150;-110.320;2023-11-22T10:50:44;8.82;;;1.52;;
64500;SDS011;50874;24.150;-110.320;2023-11-22T10:53:11;8.60;;;1.30;;
64500;SDS011;50874;24.150;-110.320;2023-11-22T10:55:46;9.45;;;1.30;;
64500;SDS011;50874;24.150;-110.320;2023-11-22T10:58:14;4.15;;;1.20;;
64500;SDS011;50874;24.150;-110.320;2023-11-22T11:00:42;6.45;;;1.85;;
64500;SDS011;50874;24.150;-110.320;2023-11-22T11:03:28;12.20;;;1.70;;
64500;SDS011;50874;24.150;-110.320;2023-11-22T11:05:58;12.80;;;2.17;;
64500;SDS011;50874;24.150;-110.320;2023-11-22T11:08:29;12.13;;;2.17;;
64500;SDS011;50874;24.150;-110.320;2023-11-22T11:10:59;13.90;;;1.70;;
64500;SDS011;50874;24.150;-110.320;2023-11-22T11:13:28;13.25;;;2.05;;
64500;SDS011;50874;24.150;-110.320;2023-11-22T11:15:56;3.83;;;1.63;;
64500;SDS011;50874;24.150;-110.320;2023-11-22T11:18:23;7.95;;;1.35;;
64500;SDS011;50874;24.150;-110.320;2023-11-22T11:20:51;11.30;;;1.70;;
64500;SDS011;50874;24.150;-110.320;2023-11-22T11:23:22;7.28;;;1.65;;
64500;SDS011;50874;24.150;-110.320;2023-11-22T11:25:50;7.82;;;1.52;;
64500;SDS011;50874;24.150;-110.320;2023-11-22T11:28:19;6.75;;;1.30;;
64500;SDS011;50874;24.150;-110.320;2023-11-22T11:30:47;3.15;;;1.17;;
64500;SDS011;50874;24.150;-110.320;2023-11-22T11:33:15;8.38;;;1.50;;
64500;SDS011;50874;24.150;-110.320;2023-11-22T11:35:48;9.60;;;1.80;;
64500;SDS011;50874;24.150;-110.320;2023-11-22T11:38:16;9.57;;;1.67;;
64500;SDS011;50874;24.150;-110.320;2023-11-22T11:40:46;15.45;;;1.80;;
64500;SDS011;50874;24.150;-110.320;2023-11-22T11:43:14;9.23;;;1.55;;
64500;SDS011;50874;24.150;-110.320;2023-11-22T11:45:45;9.23;;;1.52;;
64500;SDS011;50874;24.150;-110.320;2023-11-22T11:48:12;10.55;;;1.88;;
64500;SDS011;50874;24.150;-110.320;2023-11-22T11:50:40;15.85;;;2.08;;
64500;SDS011;50874;24.150;-110.320;2023-11-22T11:53:07;8.43;;;1.50;;
64500;SDS011;50874;24.150;-110.320;2023-11-22T11:55:37;8.80;;;1.38;;
64500;SDS011;50874;24.150;-110.320;2023-11-22T11:58:04;10.88;;;1.85;;
64500;SDS011;50874;24.150;-110.320;2023-11-22T12:00:37;7.75;;;1.90;;
64500;SDS011;50874;24.150;-110.320;2023-11-22T12:03:07;6.95;;;1.85;;
64500;SDS011;50874;24.150;-110.320;2023-11-22T12:05:39;7.35;;;1.30;;
64500;SDS011;50874;24.150;-110.320;2023-11-22T12:08:06;36.10;;;4.13;;
64500;SDS011;50874;24.150;-110.320;2023-11-22T12:10:32;11.27;;;1.75;;
64500;SDS011;50874;24.150;-110.320;2023-11-22T12:12:59;7.32;;;1.45;;
64500;SDS011;50874;24.150;-110.320;2023-11-22T12:15:25;7.10;;;1.27;;
64500;SDS011;50874;24.150;-110.320;2023-11-22T12:17:52;12.95;;;1.95;;
64500;SDS011;50874;24.150;-110.320;2023-11-22T12:20:21;6.60;;;1.58;;
64500;SDS011;50874;24.150;-110.320;2023-11-22T12:22:51;5.50;;;1.25;;
64500;SDS011;50874;24.150;-110.320;2023-11-22T12:25:18;6.95;;;1.58;;
64500;SDS011;50874;24.150;-110.320;2023-11-22T12:27:46;5.43;;;1.58;;
64500;SDS011;50874;24.150;-110.320;2023-11-22T12:30:28;11.30;;;1.80;;
64500;SDS011;50874;24.150;-110.320;2023-11-22T12:33:02;13.05;;;2.50;;
64500;SDS011;50874;24.150;-110.320;2023-11-22T12:35:35;9.55;;;1.90;;
64500;SDS011;50874;24.150;-110.320;2023-11-22T12:38:02;10.63;;;1.95;;
64500;SDS011;50874;24.150;-110.320;2023-11-22T12:40:32;10.38;;;2.10;;
64500;SDS011;50874;24.150;-110.320;2023-11-22T12:42:59;11.20;;;2.42;;
64500;SDS011;50874;24.150;-110.320;2023-11-22T12:45:26;15.13;;;2.33;;
64500;SDS011;50874;24.150;-110.320;2023-11-22T12:47:57;11.82;;;1.95;;
64500;SDS011;50874;24.150;-110.320;2023-11-22T12:50:29;12.65;;;1.83;;
64500;SDS011;50874;24.150;-110.320;2023-11-22T12:53:08;11.55;;;2.45;;
64500;SDS011;50874;24.150;-110.320;2023-11-22T12:55:36;16.85;;;2.63;;
64500;SDS011;50874;24.150;-110.320;2023-11-22T12:58:04;17.25;;;2.80;;
64500;SDS011;50874;24.150;-110.320;2023-11-22T13:00:30;18.92;;;2.10;;
64500;SDS011;50874;24.150;-110.320;2023-11-22T13:02:58;9.07;;;2.30;;
64500;SDS011;50874;24.150;-110.320;2023-11-22T13:05:25;9.65;;;2.13;;
64500;SDS011;50874;24.150;-110.320;2023-11-22T13:07:51;11.23;;;2.72;;
64500;SDS011;50874;24.150;-110.320;2023-11-22T13:10:21;15.70;;;2.00;;
64500;SDS011;50874;24.150;-110.320;2023-11-22T13:12:51;23.67;;;2.70;;
64500;SDS011;50874;24.150;-110.320;2023-11-22T13:15:19;12.52;;;2.50;;
64500;SDS011;50874;24.150;-110.320;2023-11-22T13:17:57;19.38;;;2.95;;
64500;SDS011;50874;24.150;-110.320;2023-11-22T13:20:24;21.05;;;3.13;;
64500;SDS011;50874;24.150;-110.320;2023-11-22T13:22:51;15.63;;;3.13;;
64500;SDS011;50874;24.150;-110.320;2023-11-22T13:25:19;109.05;;;9.95;;
64500;SDS011;50874;24.150;-110.320;2023-11-22T13:27:46;48.45;;;6.03;;
64500;SDS011;50874;24.150;-110.320;2023-11-22T13:30:17;28.08;;;3.80;;
64500;SDS011;50874;24.150;-110.320;2023-11-22T13:32:48;33.95;;;3.47;;
64500;SDS011;50874;24.150;-110.320;2023-11-22T13:35:15;40.47;;;4.32;;
64500;SDS011;50874;24.150;-110.320;2023-11-22T13:37:43;33.45;;;3.13;;
64500;SDS011;50874;24.150;-110.320;2023-11-22T13:40:11;25.25;;;4.10;;
64500;SDS011;50874;24.150;-110.320;2023-11-22T13:42:42;40.95;;;4.80;;
64500;SDS011;50874;24.150;-110.320;2023-11-22T13:45:13;53.65;;;5.32;;
64500;SDS011;50874;24.150;-110.320;2023-11-22T13:47:48;334.60;;;29.60;;
64500;SDS011;50874;24.150;-110.320;2023-11-22T13:50:22;114.03;;;11.88;;
64500;SDS011;50874;24.150;-110.320;2023-11-22T13:52:53;287.67;;;69.60;;
64500;SDS011;50874;24.150;-110.320;2023-11-22T13:55:20;621.10;;;65.20;;
64500;SDS011;50874;24.150;-110.320;2023-11-22T13:57:51;686.55;;;62.53;;
64500;SDS011;50874;24.150;-110.320;2023-11-22T14:00:18;371.73;;;31.27;;
64500;SDS011;50874;24.150;-110.320;2023-11-22T14:02:51;328.55;;;28.40;;
64500;SDS011;50874;24.150;-110.320;2023-11-22T14:05:21;131.90;;;13.38;;
64500;SDS011;50874;24.150;-110.320;2023-11-22T14:07:48;217.48;;;21.30;;
64500;SDS011;50874;24.150;-110.320;2023-11-22T14:10:17;114.22;;;10.30;;